createdAt,value
2023-03-22T00:00:42.202Z,0.00
2023-03-22T00:01:42.208Z,0.00
2023-03-22T00:03:43.834Z,0.00
2023-03-22T00:04:43.780Z,0.00
2023-03-22T00:05:43.764Z,0.00
2023-03-22T00:06:43.731Z,0.00
2023-03-22T00:07:43.723Z,0.00
2023-03-22T00:08:43.714Z,0.00
2023-03-22T00:09:43.712Z,0.00
2023-03-22T00:10:43.692Z,0.00
2023-03-22T00:11:43.686Z,0.00
2023-03-22T00:12:43.672Z,0.00
2023-03-22T00:13:43.659Z,0.00
2023-03-22T00:14:43.662Z,0.00
2023-03-22T00:15:43.662Z,0.00
2023-03-22T00:16:43.627Z,0.00
2023-03-22T00:17:43.613Z,0.00
2023-03-22T00:18:43.606Z,0.00
2023-03-22T00:19:43.600Z,0.00
2023-03-22T00:20:43.579Z,0.00
2023-03-22T00:21:43.576Z,0.00
2023-03-22T00:22:43.564Z,0.00
2023-03-22T00:23:43.550Z,0.00
2023-03-22T00:24:43.557Z,0.00
2023-03-22T00:25:43.526Z,0.00
2023-03-22T00:26:43.516Z,0.00
2023-03-22T00:27:43.500Z,0.00
2023-03-22T00:28:43.516Z,0.00
2023-03-22T00:29:43.498Z,0.00
2023-03-22T00:30:43.474Z,0.00
2023-03-22T00:31:43.478Z,0.00
2023-03-22T00:32:43.460Z,0.00
2023-03-22T00:33:43.440Z,0.00
2023-03-22T00:34:43.444Z,0.00
2023-03-22T00:35:43.439Z,0.00
2023-03-22T00:36:43.459Z,0.00
2023-03-22T00:37:43.401Z,0.00
2023-03-22T00:38:44.471Z,0.00
2023-03-22T00:39:43.394Z,0.00
2023-03-22T00:40:43.374Z,0.00
2023-03-22T00:41:43.359Z,0.00
2023-03-22T00:42:43.348Z,0.00
2023-03-22T00:43:43.333Z,0.00
2023-03-22T00:44:43.342Z,0.00
2023-03-22T00:45:43.366Z,0.00
2023-03-22T00:46:43.317Z,0.00
2023-03-22T00:47:43.405Z,0.00
2023-03-22T00:48:43.299Z,0.00
2023-03-22T00:49:43.279Z,0.00
2023-03-22T00:50:43.263Z,0.00
2023-03-22T00:51:43.260Z,0.00
2023-03-22T00:52:43.250Z,0.00
2023-03-22T00:53:43.890Z,0.00
2023-03-22T00:54:43.228Z,0.00
2023-03-22T00:55:43.223Z,0.00
2023-03-22T00:56:43.197Z,0.00
2023-03-22T00:57:43.181Z,0.00
2023-03-22T00:58:43.176Z,0.00
2023-03-22T00:59:43.186Z,0.00
2023-03-22T01:00:43.184Z,0.00
2023-03-22T01:01:43.139Z,0.00
2023-03-22T01:02:43.131Z,0.00
2023-03-22T01:03:43.358Z,0.00
2023-03-22T01:04:43.132Z,0.00
2023-03-22T01:05:43.094Z,0.00
2023-03-22T01:06:43.084Z,0.00
2023-03-22T01:07:43.075Z,0.00
2023-03-22T01:08:43.075Z,0.00
2023-03-22T01:09:43.053Z,0.00
2023-03-22T01:10:43.059Z,0.00
2023-03-22T01:11:43.037Z,0.00
2023-03-22T01:12:43.025Z,0.00
2023-03-22T01:13:43.016Z,0.00
2023-03-22T01:14:43.005Z,0.00
2023-03-22T01:15:43.001Z,0.00
2023-03-22T01:16:43.023Z,0.00
2023-03-22T01:17:42.968Z,0.00
2023-03-22T01:18:42.965Z,0.00
2023-03-22T01:19:42.941Z,0.00
2023-03-22T01:20:42.959Z,0.00
2023-03-22T01:21:42.916Z,0.00
2023-03-22T01:22:42.914Z,0.00
2023-03-22T01:23:42.895Z,0.00
2023-03-22T01:24:42.889Z,0.00
2023-03-22T01:25:42.884Z,0.00
2023-03-22T01:26:42.865Z,0.00
2023-03-22T01:27:42.852Z,0.00
2023-03-22T01:28:42.842Z,0.00
2023-03-22T01:29:42.827Z,0.00
2023-03-22T01:30:43.118Z,0.00
2023-03-22T01:31:42.812Z,0.00
2023-03-22T01:32:42.808Z,0.00
2023-03-22T01:33:42.786Z,0.00
2023-03-22T01:34:42.778Z,0.00
2023-03-22T01:35:42.850Z,0.00
2023-03-22T01:36:42.770Z,0.00
2023-03-22T01:37:42.751Z,0.00
2023-03-22T01:38:42.736Z,0.00
2023-03-22T01:39:42.724Z,0.00
2023-03-22T01:40:42.968Z,0.00
2023-03-22T01:41:42.706Z,0.00
2023-03-22T01:42:42.710Z,0.00
2023-03-22T01:43:42.682Z,0.00
2023-03-22T01:44:42.681Z,0.00
2023-03-22T01:45:42.672Z,0.00
2023-03-22T01:46:42.666Z,0.00
2023-03-22T01:47:42.685Z,0.00
2023-03-22T01:48:42.652Z,0.00
2023-03-22T01:49:42.623Z,0.00
2023-03-22T01:50:42.668Z,0.00
2023-03-22T01:51:43.742Z,0.00
2023-03-22T01:52:42.612Z,0.00
2023-03-22T01:53:42.581Z,0.00
2023-03-22T01:54:42.574Z,0.00
2023-03-22T01:55:42.588Z,0.00
2023-03-22T01:56:42.553Z,0.00
2023-03-22T01:57:42.548Z,0.00
2023-03-22T01:58:42.531Z,0.00
2023-03-22T01:59:42.521Z,0.00
2023-03-22T02:00:42.527Z,0.00
2023-03-22T02:01:42.533Z,0.00
2023-03-22T02:02:42.541Z,0.00
2023-03-22T02:03:42.511Z,0.00
2023-03-22T02:04:42.472Z,0.00
2023-03-22T02:05:42.485Z,0.00
2023-03-22T02:06:42.452Z,0.00
2023-03-22T02:07:42.450Z,0.00
2023-03-22T02:08:42.429Z,0.00
2023-03-22T02:09:42.423Z,0.00
2023-03-22T02:10:42.422Z,0.00
2023-03-22T02:11:42.393Z,0.00
2023-03-22T02:12:42.388Z,0.00
2023-03-22T02:13:42.471Z,0.00
2023-03-22T02:14:42.372Z,0.00
2023-03-22T02:15:42.392Z,0.00
2023-03-22T02:16:42.348Z,0.00
2023-03-22T02:17:42.341Z,0.00
2023-03-22T02:18:42.331Z,0.00
2023-03-22T02:19:42.340Z,0.00
2023-03-22T02:20:42.319Z,0.00
2023-03-22T02:21:42.284Z,0.00
2023-03-22T02:22:42.305Z,0.00
2023-03-22T02:23:42.272Z,0.00
2023-03-22T02:24:43.978Z,0.00
2023-03-22T02:25:42.293Z,0.00
2023-03-22T02:26:42.285Z,0.00
2023-03-22T02:27:42.229Z,0.00
2023-03-22T02:28:42.220Z,0.00
2023-03-22T02:29:42.281Z,0.00
2023-03-22T02:30:42.229Z,0.00
2023-03-22T02:31:42.189Z,0.00
2023-03-22T02:32:43.368Z,0.00
2023-03-22T02:33:43.330Z,0.00
2023-03-22T02:34:43.315Z,0.00
2023-03-22T02:35:43.343Z,0.00
2023-03-22T02:36:43.279Z,0.00
2023-03-22T02:37:43.328Z,0.00
2023-03-22T02:38:43.271Z,0.00
2023-03-22T02:39:43.268Z,0.00
2023-03-22T02:40:43.271Z,0.00
2023-03-22T02:41:43.266Z,0.00
2023-03-22T02:42:43.243Z,0.00
2023-03-22T02:43:43.227Z,0.00
2023-03-22T02:44:43.203Z,0.00
2023-03-22T02:45:43.239Z,0.00
2023-03-22T02:46:43.213Z,0.00
2023-03-22T02:47:43.226Z,0.00
2023-03-22T02:48:43.158Z,0.00
2023-03-22T02:49:43.172Z,0.00
2023-03-22T02:50:43.142Z,0.00
2023-03-22T02:51:43.161Z,0.00
2023-03-22T02:52:43.158Z,0.00
2023-03-22T02:53:43.130Z,0.00
2023-03-22T02:54:44.656Z,0.00
2023-03-22T02:55:44.118Z,0.00
2023-03-22T02:56:43.100Z,0.00
2023-03-22T02:57:43.097Z,0.00
2023-03-22T02:58:43.075Z,0.00
2023-03-22T02:59:43.085Z,0.00
2023-03-22T03:00:43.216Z,0.00
2023-03-22T03:01:43.074Z,0.00
2023-03-22T03:02:43.038Z,0.00
2023-03-22T03:03:43.022Z,0.00
2023-03-22T03:04:43.026Z,0.00
2023-03-22T03:05:43.018Z,0.00
2023-03-22T03:06:42.988Z,0.00
2023-03-22T03:07:42.970Z,0.00
2023-03-22T03:08:42.983Z,0.00
2023-03-22T03:09:42.985Z,0.00
2023-03-22T03:10:42.967Z,0.00
2023-03-22T03:11:42.961Z,0.00
2023-03-22T03:12:42.928Z,0.00
2023-03-22T03:13:42.917Z,0.00
2023-03-22T03:14:42.913Z,0.00
2023-03-22T03:15:42.892Z,0.00
2023-03-22T03:16:42.918Z,0.00
2023-03-22T03:17:42.873Z,0.00
2023-03-22T03:18:42.878Z,0.00
2023-03-22T03:19:42.882Z,0.00
2023-03-22T03:20:42.886Z,0.00
2023-03-22T03:21:42.870Z,0.00
2023-03-22T03:22:42.817Z,0.00
2023-03-22T03:23:42.816Z,0.00
2023-03-22T03:24:42.815Z,0.00
2023-03-22T03:25:42.801Z,0.00
2023-03-22T03:26:42.787Z,0.00
2023-03-22T03:27:42.782Z,0.00
2023-03-22T03:28:42.763Z,0.00
2023-03-22T03:29:42.754Z,0.00
2023-03-22T03:30:42.741Z,0.00
2023-03-22T03:31:42.772Z,0.00
2023-03-22T03:32:42.721Z,0.00
2023-03-22T03:33:42.705Z,0.00
2023-03-22T03:34:42.735Z,0.00
2023-03-22T03:35:42.736Z,0.00
2023-03-22T03:36:42.712Z,0.00
2023-03-22T03:37:42.682Z,0.00
2023-03-22T03:38:42.658Z,0.00
2023-03-22T03:39:42.645Z,0.00
2023-03-22T03:40:42.655Z,0.00
2023-03-22T03:41:42.641Z,0.00
2023-03-22T03:42:42.654Z,0.00
2023-03-22T03:43:42.619Z,0.00
2023-03-22T03:44:42.622Z,0.00
2023-03-22T03:45:42.618Z,0.00
2023-03-22T03:46:42.593Z,0.00
2023-03-22T03:47:42.596Z,0.00
2023-03-22T03:48:42.600Z,0.00
2023-03-22T03:49:42.553Z,0.00
2023-03-22T03:50:42.589Z,0.00
2023-03-22T03:51:42.563Z,0.00
2023-03-22T03:52:42.540Z,0.00
2023-03-22T03:53:42.520Z,0.00
2023-03-22T03:54:43.498Z,0.00
2023-03-22T03:55:42.488Z,0.00
2023-03-22T03:56:42.489Z,0.00
2023-03-22T03:57:42.508Z,0.00
2023-03-22T03:58:42.467Z,0.00
2023-03-22T03:59:42.470Z,0.00
2023-03-22T04:00:42.436Z,0.00
2023-03-22T04:01:42.468Z,0.00
2023-03-22T04:02:42.434Z,0.00
2023-03-22T04:03:42.458Z,0.00
2023-03-22T04:04:42.531Z,0.00
2023-03-22T04:05:42.416Z,0.00
2023-03-22T04:06:42.407Z,0.00
2023-03-22T04:07:42.396Z,0.00
2023-03-22T04:08:42.390Z,0.00
2023-03-22T04:09:42.373Z,0.00
2023-03-22T04:10:42.364Z,0.00
2023-03-22T04:11:42.395Z,0.00
2023-03-22T04:12:42.356Z,0.00
2023-03-22T04:13:42.332Z,0.00
2023-03-22T04:14:42.316Z,0.00
2023-03-22T04:15:42.305Z,0.00
2023-03-22T04:16:42.318Z,0.00
2023-03-22T04:17:42.277Z,0.00
2023-03-22T04:18:42.280Z,0.00
2023-03-22T04:19:42.273Z,0.00
2023-03-22T04:20:42.274Z,0.00
2023-03-22T04:21:42.253Z,0.00
2023-03-22T04:22:42.273Z,0.00
2023-03-22T04:23:42.207Z,0.00
2023-03-22T04:24:42.210Z,0.00
2023-03-22T04:25:42.204Z,0.00
2023-03-22T04:26:42.189Z,0.00
2023-03-22T04:27:42.202Z,0.00
2023-03-22T04:28:42.174Z,0.00
2023-03-22T04:29:42.163Z,0.00
2023-03-22T04:30:42.679Z,0.00
2023-03-22T04:31:42.128Z,0.00
2023-03-22T04:32:42.147Z,0.00
2023-03-22T04:33:42.107Z,0.00
2023-03-22T04:34:42.097Z,0.00
2023-03-22T04:35:42.121Z,0.00
2023-03-22T04:36:42.087Z,0.00
2023-03-22T04:37:42.086Z,0.00
2023-03-22T04:38:42.089Z,0.00
2023-03-22T04:39:42.079Z,0.00
2023-03-22T04:40:42.454Z,0.00
2023-03-22T04:41:42.045Z,0.00
2023-03-22T04:42:42.044Z,0.00
2023-03-22T04:43:42.028Z,0.00
2023-03-22T04:44:42.018Z,0.00
2023-03-22T04:45:42.090Z,0.00
2023-03-22T04:46:42.021Z,0.00
2023-03-22T04:47:42.126Z,0.00
2023-03-22T04:48:42.005Z,0.00
2023-03-22T04:49:41.961Z,0.00
2023-03-22T04:50:42.177Z,0.00
2023-03-22T04:51:41.947Z,0.00
2023-03-22T04:52:41.950Z,0.00
2023-03-22T04:53:41.900Z,0.00
2023-03-22T04:54:41.914Z,0.00
2023-03-22T04:55:41.899Z,0.00
2023-03-22T04:56:41.887Z,0.00
2023-03-22T04:57:41.894Z,0.00
2023-03-22T04:58:41.883Z,4.00
2023-03-22T04:59:41.847Z,4.00
2023-03-22T05:00:42.067Z,0.00
2023-03-22T05:01:41.862Z,4.00
2023-03-22T05:02:41.922Z,4.00
2023-03-22T05:03:41.826Z,4.00
2023-03-22T05:04:41.816Z,4.00
2023-03-22T05:05:41.791Z,4.00
2023-03-22T05:06:41.795Z,8.00
2023-03-22T05:07:41.785Z,8.00
2023-03-22T05:08:41.761Z,12.00
2023-03-22T05:09:41.762Z,12.00
2023-03-22T05:10:42.176Z,16.00
2023-03-22T05:11:41.742Z,20.00
2023-03-22T05:12:41.738Z,24.00
2023-03-22T05:13:42.716Z,28.00
2023-03-22T05:14:41.759Z,32.00
2023-03-22T05:15:41.772Z,36.00
2023-03-22T05:16:41.692Z,40.00
2023-03-22T05:17:41.700Z,48.00
2023-03-22T05:18:41.667Z,52.00
2023-03-22T05:19:41.650Z,56.00
2023-03-22T05:20:41.951Z,64.00
2023-03-22T05:21:41.640Z,68.00
2023-03-22T05:22:41.638Z,80.00
2023-03-22T05:23:41.628Z,88.00
2023-03-22T05:24:41.616Z,100.00
2023-03-22T05:25:41.856Z,116.00
2023-03-22T05:26:41.585Z,128.00
2023-03-22T05:27:41.594Z,144.00
2023-03-22T05:28:41.593Z,160.00
2023-03-22T05:29:41.557Z,172.00
2023-03-22T05:30:41.778Z,188.00
2023-03-22T05:31:41.585Z,200.00
2023-03-22T05:32:41.535Z,216.00
2023-03-22T05:33:41.526Z,236.00
2023-03-22T05:34:41.503Z,256.00
2023-03-22T05:35:41.614Z,272.00
2023-03-22T05:36:41.496Z,292.00
2023-03-22T05:37:41.479Z,308.00
2023-03-22T05:38:41.447Z,328.00
2023-03-22T05:39:41.439Z,340.00
2023-03-22T05:40:41.800Z,348.00
2023-03-22T05:41:41.465Z,340.00
2023-03-22T05:42:41.438Z,324.00
2023-03-22T05:43:41.402Z,316.00
2023-03-22T05:44:41.430Z,308.00
2023-03-22T05:45:41.395Z,304.00
2023-03-22T05:46:41.455Z,316.00
2023-03-22T05:47:41.475Z,344.00
2023-03-22T05:48:41.394Z,336.00
2023-03-22T05:49:41.380Z,328.00
2023-03-22T05:50:41.512Z,340.00
2023-03-22T05:51:41.341Z,360.00
2023-03-22T05:52:41.361Z,376.00
2023-03-22T05:53:41.331Z,384.00
2023-03-22T05:54:41.296Z,392.00
2023-03-22T05:55:41.289Z,396.00
2023-03-22T05:56:41.295Z,392.00
2023-03-22T05:57:41.268Z,420.00
2023-03-22T05:58:41.309Z,468.00
2023-03-22T05:59:41.289Z,488.00
2023-03-22T06:00:41.550Z,500.00
2023-03-22T06:01:41.277Z,524.00
2023-03-22T06:02:41.303Z,532.00
2023-03-22T06:03:41.249Z,560.00
2023-03-22T06:04:41.220Z,588.00
2023-03-22T06:05:41.196Z,596.00
2023-03-22T06:06:41.229Z,584.00
2023-03-22T06:07:41.173Z,576.00
2023-03-22T06:08:41.191Z,588.00
2023-03-22T06:09:41.204Z,612.00
2023-03-22T06:10:41.504Z,684.00
2023-03-22T06:11:41.155Z,744.00
2023-03-22T06:12:41.171Z,760.00
2023-03-22T06:13:41.147Z,756.00
2023-03-22T06:14:41.119Z,788.00
2023-03-22T06:15:41.130Z,864.00
2023-03-22T06:16:41.172Z,920.00
2023-03-22T06:17:41.133Z,964.00
2023-03-22T06:18:41.111Z,1024.00
2023-03-22T06:19:41.907Z,1096.00
2023-03-22T06:20:41.476Z,1152.00
2023-03-22T06:21:41.164Z,1240.00
2023-03-22T06:22:41.178Z,1328.00
2023-03-22T06:23:41.105Z,1356.00
2023-03-22T06:24:41.063Z,1384.00
2023-03-22T06:25:41.170Z,1444.00
2023-03-22T06:26:41.103Z,1512.00
2023-03-22T06:27:41.082Z,1612.00
2023-03-22T06:28:41.018Z,1884.00
2023-03-22T06:29:40.980Z,1896.00
2023-03-22T06:30:41.358Z,1980.00
2023-03-22T06:31:41.154Z,2032.00
2023-03-22T06:32:41.020Z,1912.00
2023-03-22T06:33:40.968Z,2096.00
2023-03-22T06:34:40.981Z,2452.00
2023-03-22T06:35:41.036Z,2568.00
2023-03-22T06:36:41.007Z,1900.00
2023-03-22T06:37:40.954Z,1908.00
2023-03-22T06:38:40.925Z,2636.00
2023-03-22T06:39:40.938Z,2672.00
2023-03-22T06:40:41.096Z,2720.00
2023-03-22T06:41:40.896Z,2776.00
2023-03-22T06:42:40.866Z,2884.00
2023-03-22T06:43:40.880Z,2916.00
2023-03-22T06:44:40.831Z,2880.00
2023-03-22T06:45:40.901Z,3088.00
2023-03-22T06:46:40.942Z,3240.00
2023-03-22T06:47:40.957Z,3228.00
2023-03-22T06:48:40.843Z,3316.00
2023-03-22T06:49:40.924Z,3368.00
2023-03-22T06:50:43.058Z,3488.00
2023-03-22T06:51:41.779Z,3416.00
2023-03-22T06:52:40.762Z,3332.00
2023-03-22T06:53:40.790Z,3300.00
2023-03-22T06:54:40.744Z,3380.00
2023-03-22T06:55:40.729Z,3408.00
2023-03-22T06:56:40.785Z,3428.00
2023-03-22T06:57:40.766Z,3380.00
2023-03-22T06:58:40.798Z,3552.00
2023-03-22T06:59:40.790Z,3576.00
2023-03-22T07:00:40.857Z,3580.00
2023-03-22T07:01:40.708Z,3608.00
2023-03-22T07:02:40.743Z,3612.00
2023-03-22T07:03:40.677Z,3664.00
2023-03-22T07:04:40.661Z,3708.00
2023-03-22T07:05:40.684Z,3784.00
2023-03-22T07:07:13.504Z,3804.00
2023-03-22T07:07:40.646Z,3916.00
2023-03-22T07:08:41.757Z,3932.00
2023-03-22T07:10:14.536Z,4032.00
2023-03-22T07:10:55.141Z,4112.00
2023-03-22T07:11:40.576Z,4172.00
2023-03-22T07:17:48.429Z,4464.00
2023-03-22T07:18:31.393Z,4500.00
2023-03-22T07:19:47.065Z,4592.00
2023-03-22T07:20:31.341Z,4644.00
2023-03-22T07:21:31.337Z,4720.00
2023-03-22T07:22:31.327Z,4780.00
2023-03-22T07:23:31.941Z,4900.00
2023-03-22T07:24:31.313Z,4940.00
2023-03-22T07:25:31.301Z,5016.00
2023-03-22T07:26:42.032Z,5068.00
2023-03-22T07:27:31.276Z,5112.00
2023-03-22T07:28:31.268Z,5172.00
2023-03-22T07:30:10.522Z,5188.00
2023-03-22T07:30:31.241Z,5320.00
2023-03-22T07:31:31.235Z,5356.00
2023-03-22T07:37:01.838Z,4292.00
2023-03-22T07:38:01.834Z,4340.00
2023-03-22T07:39:02.341Z,6180.00
2023-03-22T07:40:01.940Z,5676.00
2023-03-22T07:44:38.844Z,6216.00
2023-03-22T07:44:54.122Z,6376.00
2023-03-22T07:45:54.049Z,6516.00
2023-03-22T07:46:56.128Z,6452.00
2023-03-22T07:47:54.093Z,6388.00
2023-03-22T07:48:54.042Z,6168.00
2023-03-22T07:49:54.043Z,6300.00
2023-03-22T07:50:53.993Z,6440.00
2023-03-22T07:51:53.968Z,6104.00
2023-03-22T07:52:53.991Z,6332.00
2023-03-22T07:53:53.975Z,5008.00
2023-03-22T07:54:53.985Z,5012.00
2023-03-22T07:55:53.954Z,6580.00
2023-03-22T07:56:53.951Z,6428.00
2023-03-22T07:57:53.960Z,6428.00
2023-03-22T07:58:53.957Z,6632.00
2023-03-22T07:59:53.900Z,7060.00
2023-03-22T08:00:53.884Z,7556.00
2023-03-22T08:01:53.928Z,7968.00
2023-03-22T08:02:53.901Z,7992.00
2023-03-22T08:03:53.836Z,8372.00
2023-03-22T08:04:56.239Z,8376.00
2023-03-22T08:05:53.849Z,6836.00
2023-03-22T08:06:53.814Z,5704.00
2023-03-22T08:07:53.853Z,5916.00
2023-03-22T08:08:53.812Z,5008.00
2023-03-22T08:09:53.974Z,5904.00
2023-03-22T08:10:55.092Z,6712.00
2023-03-22T08:11:53.846Z,7120.00
2023-03-22T08:12:53.789Z,7640.00
2023-03-22T08:13:54.057Z,7428.00
2023-03-22T08:14:53.802Z,6888.00
2023-03-22T08:15:53.852Z,6076.00
2023-03-22T08:16:53.716Z,5648.00
2023-03-22T08:17:53.730Z,5812.00
2023-03-22T08:18:53.741Z,5172.00
2023-03-22T08:19:53.679Z,4420.00
2023-03-22T08:20:53.690Z,4236.00
2023-03-22T08:21:53.647Z,4156.00
2023-03-22T08:22:53.696Z,3800.00
2023-03-22T08:23:53.699Z,5016.00
2023-03-22T08:24:53.708Z,3576.00
2023-03-22T08:25:53.688Z,3460.00
2023-03-22T08:26:53.665Z,2704.00
2023-03-22T08:27:53.593Z,2880.00
2023-03-22T08:28:53.596Z,3080.00
2023-03-22T08:29:53.587Z,3280.00
2023-03-22T08:30:53.588Z,3524.00
2023-03-22T08:31:53.574Z,3944.00
2023-03-22T08:32:53.551Z,4612.00
2023-03-22T08:33:53.522Z,5504.00
2023-03-22T08:34:53.848Z,7072.00
2023-03-22T08:35:53.525Z,7020.00
2023-03-22T08:36:53.485Z,7028.00
2023-03-22T08:37:53.514Z,7232.00
2023-03-22T08:38:53.465Z,7500.00
2023-03-22T08:39:53.453Z,6092.00
2023-03-22T08:40:53.466Z,6008.00
2023-03-22T08:41:53.493Z,6328.00
2023-03-22T08:42:53.431Z,7976.00
2023-03-22T08:43:53.431Z,5564.00
2023-03-22T08:44:53.529Z,5600.00
2023-03-22T08:45:53.432Z,6204.00
2023-03-22T08:46:53.385Z,7312.00
2023-03-22T08:47:53.413Z,8080.00
2023-03-22T08:48:53.370Z,7440.00
2023-03-22T08:49:53.363Z,5492.00
2023-03-22T08:50:53.354Z,4440.00
2023-03-22T08:51:53.326Z,4468.00
2023-03-22T08:52:53.326Z,5088.00
2023-03-22T08:53:53.305Z,5960.00
2023-03-22T08:54:53.300Z,5288.00
2023-03-22T08:55:53.309Z,4728.00
2023-03-22T08:56:53.279Z,4416.00
2023-03-22T08:57:53.330Z,5244.00
2023-03-22T08:58:53.282Z,5712.00
2023-03-22T08:59:53.253Z,5632.00
2023-03-22T09:00:53.421Z,4500.00
2023-03-22T09:01:53.313Z,5380.00
2023-03-22T09:02:53.821Z,5912.00
2023-03-22T09:03:53.209Z,6460.00
2023-03-22T09:04:53.308Z,6640.00
2023-03-22T09:05:53.190Z,6152.00
2023-03-22T09:06:53.178Z,6196.00
2023-03-22T09:07:53.154Z,6084.00
2023-03-22T09:08:53.146Z,5080.00
2023-03-22T09:09:53.131Z,5300.00
2023-03-22T09:10:53.132Z,5284.00
2023-03-22T09:11:53.156Z,5368.00
2023-03-22T09:12:53.107Z,6072.00
2023-03-22T09:13:53.086Z,5844.00
2023-03-22T09:14:54.442Z,5180.00
2023-03-22T09:15:53.156Z,4648.00
2023-03-22T09:16:53.072Z,4284.00
2023-03-22T09:17:53.122Z,3580.00
2023-03-22T09:18:59.892Z,3264.00
2023-03-22T09:20:05.779Z,3400.00
2023-03-22T09:21:17.853Z,4092.00
2023-03-22T09:21:53.027Z,4844.00
2023-03-22T09:22:53.012Z,5364.00
2023-03-22T09:23:52.993Z,5044.00
2023-03-22T09:24:52.981Z,5332.00
2023-03-22T09:25:52.970Z,6216.00
2023-03-22T09:26:52.955Z,5724.00
2023-03-22T09:27:52.939Z,4552.00
2023-03-22T09:28:52.948Z,4132.00
2023-03-22T09:29:52.952Z,4720.00
2023-03-22T09:30:52.952Z,5848.00
2023-03-22T09:31:52.897Z,6516.00
2023-03-22T09:32:52.895Z,9520.00
2023-03-22T09:33:52.877Z,7104.00
2023-03-22T09:34:52.885Z,6160.00
2023-03-22T09:35:52.912Z,6028.00
2023-03-22T09:36:52.907Z,6340.00
2023-03-22T09:37:52.851Z,7356.00
2023-03-22T09:38:52.831Z,7080.00
2023-03-22T09:39:52.816Z,8556.00
2023-03-22T09:40:52.819Z,6756.00
2023-03-22T09:41:52.807Z,6636.00
2023-03-22T09:42:54.004Z,6004.00
2023-03-22T09:43:52.784Z,5300.00
2023-03-22T09:44:52.802Z,4240.00
2023-03-22T09:45:52.825Z,3540.00
2023-03-22T09:46:52.793Z,3476.00
2023-03-22T09:47:52.845Z,3304.00
2023-03-22T09:48:52.753Z,3256.00
2023-03-22T09:49:54.158Z,3112.00
2023-03-22T09:50:52.712Z,2856.00
2023-03-22T09:51:52.752Z,2856.00
2023-03-22T09:52:52.689Z,2600.00
2023-03-22T09:53:52.684Z,2480.00
2023-03-22T09:54:53.323Z,2472.00
2023-03-22T09:55:52.655Z,2376.00
2023-03-22T09:56:52.655Z,2364.00
2023-03-22T09:57:52.631Z,2464.00
2023-03-22T09:58:52.763Z,2788.00
2023-03-22T09:59:52.611Z,3280.00
2023-03-22T10:00:52.735Z,4496.00
2023-03-22T10:01:52.899Z,5780.00
2023-03-22T10:02:52.684Z,6380.00
2023-03-22T10:03:52.674Z,6740.00
2023-03-22T10:04:52.579Z,6568.00
2023-03-22T10:05:52.584Z,6280.00
2023-03-22T10:06:52.560Z,7380.00
2023-03-22T10:07:52.535Z,5372.00
2023-03-22T10:08:52.612Z,5280.00
2023-03-22T10:09:52.512Z,5644.00
2023-03-22T10:10:52.508Z,6176.00
2023-03-22T10:11:52.502Z,6372.00
2023-03-22T10:12:52.497Z,5684.00
2023-03-22T10:13:52.471Z,5768.00
2023-03-22T10:14:52.467Z,5876.00
2023-03-22T10:15:52.557Z,6036.00
2023-03-22T10:16:54.142Z,6208.00
2023-03-22T10:17:52.438Z,5984.00
2023-03-22T10:18:52.434Z,5848.00
2023-03-22T10:19:52.427Z,6764.00
2023-03-22T10:20:52.409Z,8088.00
2023-03-22T10:21:52.428Z,9092.00
2023-03-22T10:22:53.389Z,10496.00
2023-03-22T10:23:52.374Z,12068.00
2023-03-22T10:24:52.362Z,11440.00
2023-03-22T10:25:52.356Z,7536.00
2023-03-22T10:26:52.354Z,6384.00
2023-03-22T10:27:52.344Z,6460.00
2023-03-22T10:28:52.331Z,6460.00
2023-03-22T10:29:52.402Z,5832.00
2023-03-22T10:30:52.306Z,5088.00
2023-03-22T10:31:52.416Z,5764.00
2023-03-22T10:32:57.810Z,7936.00
2023-03-22T10:33:53.298Z,9388.00
2023-03-22T10:34:52.265Z,9916.00
2023-03-22T10:35:52.336Z,8036.00
2023-03-22T10:36:52.253Z,8608.00
2023-03-22T10:37:52.255Z,9864.00
2023-03-22T10:38:52.224Z,8920.00
2023-03-22T10:39:52.213Z,7696.00
2023-03-22T10:40:52.204Z,7304.00
2023-03-22T10:41:52.204Z,7348.00
2023-03-22T10:42:52.260Z,7192.00
2023-03-22T10:43:52.181Z,7112.00
2023-03-22T10:44:52.155Z,6220.00
2023-03-22T10:45:52.142Z,6060.00
2023-03-22T10:46:52.273Z,6080.00
2023-03-22T10:47:52.173Z,6156.00
2023-03-22T10:48:52.118Z,5956.00
2023-03-22T10:49:52.109Z,6056.00
2023-03-22T10:50:52.096Z,6996.00
2023-03-22T10:51:52.096Z,8408.00
2023-03-22T10:52:52.078Z,9348.00
2023-03-22T10:53:52.063Z,10112.00
2023-03-22T10:54:52.052Z,10164.00
2023-03-22T10:55:52.058Z,10732.00
2023-03-22T10:56:52.041Z,10276.00
2023-03-22T10:57:52.023Z,10324.00
2023-03-22T10:58:52.080Z,10896.00
2023-03-22T10:59:52.031Z,11692.00
2023-03-22T11:00:52.129Z,11156.00
2023-03-22T11:01:52.259Z,11604.00
2023-03-22T11:02:52.050Z,11064.00
2023-03-22T11:03:51.962Z,12028.00
2023-03-22T11:04:51.962Z,12300.00
2023-03-22T11:05:51.942Z,11936.00
2023-03-22T11:06:54.621Z,10548.00
2023-03-22T11:07:51.923Z,10540.00
2023-03-22T11:08:51.910Z,10284.00
2023-03-22T11:09:51.898Z,10776.00
2023-03-22T11:10:51.971Z,11472.00
2023-03-22T11:11:51.894Z,10084.00
2023-03-22T11:12:51.864Z,9168.00
2023-03-22T11:13:51.860Z,7952.00
2023-03-22T11:14:51.845Z,7208.00
2023-03-22T11:15:51.839Z,6848.00
2023-03-22T11:16:51.950Z,6852.00
2023-03-22T11:17:51.829Z,7376.00
2023-03-22T11:18:51.809Z,8348.00
2023-03-22T11:19:51.868Z,8652.00
2023-03-22T11:20:51.856Z,8080.00
2023-03-22T11:21:51.777Z,7860.00
2023-03-22T11:22:51.775Z,7080.00
2023-03-22T11:23:51.769Z,6592.00
2023-03-22T11:24:51.748Z,6612.00
2023-03-22T11:25:51.739Z,6908.00
2023-03-22T11:26:51.719Z,7016.00
2023-03-22T11:27:51.722Z,7728.00
2023-03-22T11:28:51.703Z,7536.00
2023-03-22T11:29:51.698Z,7836.00
2023-03-22T11:30:51.717Z,8464.00
2023-03-22T11:31:54.212Z,9176.00
2023-03-22T11:32:51.813Z,11164.00
2023-03-22T11:33:51.652Z,9492.00
2023-03-22T11:34:51.636Z,8508.00
2023-03-22T11:35:51.697Z,7424.00
2023-03-22T11:36:51.617Z,8488.00
2023-03-22T11:38:08.195Z,8848.00
2023-03-22T11:38:52.427Z,10356.00
2023-03-22T11:39:51.596Z,9628.00
2023-03-22T11:40:56.104Z,9840.00
2023-03-22T11:41:52.432Z,9792.00
2023-03-22T11:43:18.599Z,9576.00
2023-03-22T11:43:52.780Z,9200.00
2023-03-22T11:44:52.520Z,8908.00
2023-03-22T11:45:56.004Z,9220.00
2023-03-22T11:46:51.520Z,10316.00
2023-03-22T11:47:51.595Z,10296.00
2023-03-22T11:48:51.602Z,9516.00
2023-03-22T11:49:51.498Z,9660.00
2023-03-22T11:50:51.541Z,10312.00
2023-03-22T11:51:51.465Z,9836.00
2023-03-22T11:52:51.479Z,9132.00
2023-03-22T11:53:51.461Z,8740.00
2023-03-22T11:54:51.458Z,7920.00
2023-03-22T11:55:51.423Z,7980.00
2023-03-22T11:56:51.430Z,8028.00
2023-03-22T11:57:51.434Z,8000.00
2023-03-22T11:58:51.446Z,7360.00
2023-03-22T11:59:51.397Z,7124.00
2023-03-22T12:00:51.428Z,6860.00
2023-03-22T12:01:51.419Z,7040.00
2023-03-22T12:02:51.412Z,7428.00
2023-03-22T12:03:51.712Z,7360.00
2023-03-22T12:04:51.408Z,7280.00
2023-03-22T12:05:51.400Z,7532.00
2023-03-22T12:06:51.318Z,7856.00
2023-03-22T12:07:51.320Z,8420.00
2023-03-22T12:08:51.306Z,8828.00
2023-03-22T12:09:52.491Z,8956.00
2023-03-22T12:10:52.474Z,8828.00
2023-03-22T12:11:52.446Z,8668.00
2023-03-22T12:12:52.420Z,9132.00
2023-03-22T12:13:52.425Z,9784.00
2023-03-22T12:14:52.600Z,9896.00
2023-03-22T12:15:52.445Z,9552.00
2023-03-22T12:16:52.364Z,9384.00
2023-03-22T12:17:52.377Z,9720.00
2023-03-22T12:18:52.383Z,9972.00
2023-03-22T12:19:52.370Z,11060.00
2023-03-22T12:20:52.362Z,11176.00
2023-03-22T12:21:52.334Z,11428.00
2023-03-22T12:22:52.366Z,11452.00
2023-03-22T12:23:52.344Z,11016.00
2023-03-22T12:24:52.430Z,11324.00
2023-03-22T12:25:52.340Z,11624.00
2023-03-22T12:26:52.327Z,11656.00
2023-03-22T12:27:52.374Z,11820.00
2023-03-22T12:28:52.301Z,11544.00
2023-03-22T12:29:52.286Z,10780.00
2023-03-22T12:30:52.297Z,11164.00
2023-03-22T12:31:53.237Z,11416.00
2023-03-22T12:32:52.283Z,11032.00
2023-03-22T12:33:52.239Z,9600.00
2023-03-22T12:34:55.054Z,9084.00
2023-03-22T12:35:54.265Z,9384.00
2023-03-22T12:36:52.228Z,9024.00
2023-03-22T12:37:52.205Z,8932.00
2023-03-22T12:38:52.206Z,9280.00
2023-03-22T12:39:52.194Z,8916.00
2023-03-22T12:40:52.151Z,9508.00
2023-03-22T12:41:52.180Z,9384.00
2023-03-22T12:42:54.544Z,8492.00
2023-03-22T12:43:54.160Z,8796.00
2023-03-22T12:45:02.534Z,8800.00
2023-03-22T12:45:54.241Z,8304.00
2023-03-22T12:46:52.308Z,7772.00
2023-03-22T12:47:52.233Z,8320.00
2023-03-22T12:48:52.349Z,8916.00